Weather History for O'Neill, NE

Change the Weather History Date:

Thursday, January 24, 2013

  Actual Average Record
Temperature  
Mean Temperature 12 °F -  
Max Temperature 21 °F 34 °F 70 °F (1981)
Min Temperature 2 °F 14 °F -21 °F (1961)
Degree Days  
Heating Degree Days 54    
Moisture  
Dew Point 0 °F    
Average Humidity 62    
Maximum Humidity 85    
Minimum Humidity 34    
Precipitation  
Precipitation 0.00 in - - ()
Sea Level Pressure  
Sea Level Pressure 30.21 in    
Wind  
Wind Speed 11 mph (SSE)    
Max Wind Speed 26 mph    
Max Gust Speed 31 mph    
Visibility 10 miles    
Events      
Averages and records for this station are not official NWS values.
T = Trace of Precipitation, MM = Missing Value Source: NWS Daily Summary

Daily Weather History Graph

Daily Weather History Graph

Search for Another Location

Airport:

Trip Planner

Search our weather history database for the weather conditions in past years. The results will help you decide how hot, cold, wet, or windy it might be!

Date:

Astronomy

Jan. 24, 2013 Rise Set
Actual Time 7:55 AM CST 5:38 PM CST
Civil Twilight 7:25 AM CST 6:09 PM CST
Nautical Twilight 6:51 AM CST 6:43 PM CST
Astronomical Twilight 6:17 AM CST 7:16 PM CST
Moon 3:41 PM CST (1/24) 5:55 AM CST (1/24)
Length of Visible Light 10h 43m
Length of Day
9h 42m
Waxing Gibbous, 94% of the Moon is Illuminated
Jan 24
Waxing Gibbous
Jan 26
Full
Feb 3
Last Quarter
Feb 10
New
Feb 17
First Quarter

Hourly Weather History & Observations

Time (CST) Temp. Windchill Dew Point Humidity Pressure Visibility Wind Dir Wind Speed Gust Speed Precip Events Conditions
12:15 AM 4.8 °F -9.3 °F 0.1 °F 81% 30.44 in 10.0 mi NE 9.2 mph - N/A   Clear
12:35 AM 4.8 °F -8.3 °F -0.0 °F 80% 30.45 in 10.0 mi NE 8.1 mph - N/A   Clear
12:55 AM 4.6 °F -8.5 °F 0.1 °F 82% 30.44 in 10.0 mi NE 8.1 mph - N/A   Clear
1:15 AM 4.5 °F -4.7 °F 0.1 °F 82% 30.45 in 10.0 mi NE 4.6 mph - N/A   Clear
1:35 AM 4.1 °F -3.2 °F -0.2 °F 82% 30.43 in 10.0 mi ENE 3.5 mph - N/A   Clear
1:55 AM 4.8 °F -5.8 °F 0.5 °F 82% 30.44 in 10.0 mi East 5.8 mph - N/A   Clear
2:15 AM 5.0 °F -6.9 °F 0.5 °F 82% 30.43 in 10.0 mi ENE 6.9 mph - N/A   Clear
2:35 AM 4.6 °F -7.4 °F 0.5 °F 83% 30.43 in 10.0 mi East 6.9 mph - N/A   Clear
2:55 AM 4.1 °F -8.0 °F 0.1 °F 84% 30.43 in 10.0 mi East 6.9 mph - N/A   Clear
3:15 AM 4.5 °F -7.6 °F 0.1 °F 82% 30.44 in 10.0 mi East 6.9 mph - N/A   Clear
3:35 AM 4.6 °F -7.4 °F 0.5 °F 83% 30.43 in 10.0 mi East 6.9 mph - N/A   Clear
3:55 AM 4.5 °F -8.7 °F -0.2 °F 81% 30.42 in 10.0 mi ESE 8.1 mph - N/A   Clear
4:15 AM 4.6 °F -10.4 °F -0.4 °F 80% 30.41 in 10.0 mi ESE 10.4 mph - N/A   Clear
4:35 AM 4.6 °F -10.4 °F -0.4 °F 80% 30.39 in 10.0 mi SE 10.4 mph - N/A   Clear
4:55 AM 4.6 °F -9.5 °F -0.4 °F 80% 30.39 in 10.0 mi SE 9.2 mph - N/A   Clear
5:15 AM 4.1 °F -9.2 °F -0.9 °F 80% 30.38 in 10.0 mi SE 8.1 mph - N/A   Clear
5:35 AM 3.9 °F -9.4 °F -0.9 °F 80% 30.36 in 10.0 mi SE 8.1 mph - N/A   Clear
5:55 AM 3.2 °F -10.3 °F -0.4 °F 85% 30.34 in 10.0 mi SE 8.1 mph - N/A   Clear
6:15 AM 3.4 °F -10.0 °F -0.9 °F 82% 30.34 in 10.0 mi SE 8.1 mph - N/A   Clear
6:35 AM 3.2 °F -11.3 °F -0.9 °F 83% 30.35 in 10.0 mi SSE 9.2 mph - N/A   Clear
6:55 AM 3.0 °F -10.5 °F -1.3 °F 82% 30.34 in 10.0 mi SE 8.1 mph - N/A   Clear
7:15 AM 2.7 °F -12.9 °F -2.2 °F 80% 30.34 in 10.0 mi SE 10.4 mph - N/A   Clear
7:35 AM 3.0 °F -12.5 °F -1.7 °F 81% 30.33 in 10.0 mi SE 10.4 mph - N/A   Clear
7:55 AM 2.8 °F -12.7 °F -2.2 °F 79% 30.32 in 10.0 mi SE 10.4 mph - N/A   Clear
8:15 AM 3.2 °F -13.1 °F -2.2 °F 78% 30.33 in 10.0 mi SE 11.5 mph - N/A   Clear
8:35 AM 3.4 °F -11.1 °F -2.2 °F 78% 30.35 in 10.0 mi SSE 9.2 mph - N/A   Clear
8:55 AM 4.1 °F -11.1 °F -1.7 °F 77% 30.33 in 10.0 mi SSE 10.4 mph - N/A   Clear
9:15 AM 5.0 °F -11.6 °F -1.5 °F 75% 30.32 in 10.0 mi SE 12.7 mph - N/A   Clear
9:35 AM 5.0 °F -13.0 °F -2.7 °F 70% 30.32 in 10.0 mi SSE 15.0 mph - N/A   Clear
9:55 AM 5.9 °F -11.8 °F -2.6 °F 68% 30.30 in 10.0 mi SE 15.0 mph - N/A   Clear
10:15 AM 6.8 °F -10.7 °F -3.1 °F 64% 30.31 in 10.0 mi SSE 15.0 mph 20.7 mph N/A   Clear
10:35 AM 7.7 °F -10.1 °F -3.3 °F 61% 30.28 in 10.0 mi SSE 16.1 mph - N/A   Clear
10:55 AM 9.3 °F -8.6 °F -3.1 °F 57% 30.27 in 10.0 mi SSE 17.3 mph 24.2 mph N/A   Clear
11:15 AM 10.4 °F -7.7 °F -3.6 °F 53% 30.26 in 10.0 mi SSE 18.4 mph 23.0 mph N/A   Clear
11:35 AM 11.7 °F -7.4 °F -4.9 °F 48% 30.25 in 10.0 mi SSE 21.9 mph 27.6 mph N/A   Clear
11:55 AM 12.0 °F -7.7 °F -5.8 °F 45% 30.22 in 10.0 mi SSE 24.2 mph - N/A   Clear
12:15 PM 12.9 °F -5.3 °F -5.8 °F 43% 30.20 in 10.0 mi SSE 20.7 mph 27.6 mph N/A   Clear
12:35 PM 14.0 °F -2.5 °F -5.3 °F 42% 30.19 in 10.0 mi SSE 17.3 mph - N/A   Clear
12:55 PM 16.2 °F -1.8 °F -7.8 °F 34% 30.16 in 10.0 mi SSE 23.0 mph 28.8 mph N/A   Clear
1:15 PM 16.5 °F -2.4 °F -6.9 °F 35% 30.13 in 10.0 mi South 26.5 mph 31.1 mph N/A   Clear
1:35 PM 16.3 °F -1.6 °F -5.4 °F 38% 30.11 in 10.0 mi SSE 23.0 mph 31.1 mph N/A   Clear
1:55 PM 17.2 °F -0.8 °F -5.6 °F 36% 30.09 in 10.0 mi South 24.2 mph 29.9 mph N/A   Clear
2:15 PM 17.6 °F 0.5 °F -4.9 °F 37% 30.08 in 10.0 mi South 21.9 mph - N/A   Scattered Clouds
2:35 PM 17.6 °F 0.5 °F -4.5 °F 37% 30.07 in 10.0 mi South 21.9 mph 31.1 mph N/A   Clear
2:55 PM 18.3 °F 3.1 °F -4.0 °F 37% 30.06 in 10.0 mi South 17.3 mph 24.2 mph N/A   Clear
3:15 PM 19.4 °F 3.2 °F -4.0 °F 36% 30.06 in 10.0 mi South 20.7 mph 25.3 mph N/A   Clear
3:35 PM 19.4 °F 4.1 °F -3.8 °F 36% 30.06 in 10.0 mi South 18.4 mph - N/A   Clear
3:55 PM 19.6 °F 3.5 °F -2.9 °F 37% 30.04 in 10.0 mi South 20.7 mph 26.5 mph N/A   Clear
4:15 PM 20.1 °F 4.2 °F -1.8 °F 38% 30.04 in 10.0 mi South 20.7 mph 24.2 mph N/A   Clear
4:35 PM 20.3 °F 4.4 °F -0.8 °F 40% 30.03 in 10.0 mi South 20.7 mph 27.6 mph N/A   Clear
4:55 PM 20.1 °F 5.0 °F 0.3 °F 42% 30.02 in 10.0 mi South 18.4 mph 23.0 mph N/A   Clear
5:15 PM 20.1 °F 5.0 °F 1.4 °F 44% 30.01 in 10.0 mi South 18.4 mph 23.0 mph N/A   Clear
5:35 PM 19.4 °F 6.0 °F 1.4 °F 46% 30.02 in 10.0 mi South 13.8 mph 21.9 mph N/A   Clear
5:55 PM 18.7 °F 5.7 °F 2.1 °F 49% 30.03 in 10.0 mi SSE 12.7 mph - N/A   Clear
6:15 PM 18.7 °F 4.0 °F 2.8 °F 50% 30.02 in 10.0 mi South 16.1 mph - N/A   Clear
6:35 PM 19.0 °F 6.1 °F 3.2 °F 50% 30.03 in 10.0 mi South 12.7 mph - N/A   Clear
6:55 PM 19.2 °F 6.4 °F 3.6 °F 51% 30.02 in 10.0 mi SSE 12.7 mph - N/A   Clear
7:15 PM 19.4 °F 7.2 °F 4.1 °F 52% 30.04 in 10.0 mi South 11.5 mph - N/A   Clear
7:35 PM 19.9 °F 7.3 °F 4.8 °F 52% 30.04 in 10.0 mi South 12.7 mph - N/A   Clear
7:55 PM 20.1 °F 7.5 °F 5.0 °F 52% 30.04 in 10.0 mi South 12.7 mph - N/A   Clear
8:15 PM 20.3 °F 7.7 °F 5.4 °F 52% 30.03 in 10.0 mi South 12.7 mph - N/A   Clear
8:35 PM 20.3 °F 8.3 °F 5.7 °F 53% 30.04 in 10.0 mi South 11.5 mph - N/A   Clear
8:55 PM 20.5 °F 8.6 °F 5.9 °F 53% 30.03 in 10.0 mi South 11.5 mph - N/A   Clear
9:15 PM 20.8 °F 9.7 °F 6.8 °F 55% 30.02 in 10.0 mi South 10.4 mph - N/A   Clear
9:35 PM 21.2 °F 10.9 °F 7.7 °F 56% 30.04 in 10.0 mi South 9.2 mph - N/A   Clear
9:55 PM 21.2 °F 13.6 °F 8.4 °F 58% 30.04 in 10.0 mi South 5.8 mph - N/A   Clear
10:15 PM 21.6 °F 13.0 °F 9.7 °F 60% 30.05 in 10.0 mi South 6.9 mph - N/A   Clear
10:35 PM 21.2 °F 11.7 °F 10.2 °F 63% 30.04 in 10.0 mi South 8.1 mph - N/A   Clear
10:55 PM 21.2 °F 11.7 °F 10.4 °F 63% 30.05 in 10.0 mi South 8.1 mph - N/A   Clear
11:15 PM 21.4 °F 11.9 °F 10.6 °F 63% 30.05 in 10.0 mi South 8.1 mph - N/A   Mostly Cloudy
11:35 PM 20.3 °F 9.8 °F 10.4 °F 66% 30.05 in 10.0 mi South 9.2 mph - N/A   Mostly Cloudy
11:55 PM 21.0 °F 13.4 °F 11.3 °F 66% 30.06 in 10.0 mi SSW 5.8 mph - N/A   Mostly Cloudy